createdAt,value
2023-05-05T00:00:19.370Z,10.27
2023-05-05T00:01:19.428Z,10.21
2023-05-05T00:02:19.545Z,10.48
2023-05-05T00:03:19.568Z,10.16
2023-05-05T00:04:19.627Z,10.15
2023-05-05T00:05:19.618Z,9.98
2023-05-05T00:06:19.685Z,10.28
2023-05-05T00:07:19.728Z,10.29
2023-05-05T00:08:19.781Z,10.24
2023-05-05T00:09:19.841Z,10.08
2023-05-05T00:10:20.766Z,10.20
2023-05-05T00:11:19.952Z,10.01
2023-05-05T00:12:20.011Z,9.96
2023-05-05T00:13:20.056Z,10.10
2023-05-05T00:14:20.104Z,10.05
2023-05-05T00:15:20.159Z,9.98
2023-05-05T00:16:20.396Z,9.86
2023-05-05T00:17:20.293Z,9.92
2023-05-05T00:18:20.324Z,9.90
2023-05-05T00:19:20.384Z,9.65
2023-05-05T00:20:20.454Z,9.99
2023-05-05T00:21:20.498Z,9.99
2023-05-05T00:22:20.564Z,9.92
2023-05-05T00:23:20.641Z,10.06
2023-05-05T00:24:20.684Z,9.69
2023-05-05T00:25:20.745Z,9.71
2023-05-05T00:26:20.812Z,9.70
2023-05-05T00:27:20.874Z,9.98
2023-05-05T00:28:21.002Z,9.76
2023-05-05T00:29:20.996Z,9.69
2023-05-05T00:30:21.054Z,9.48
2023-05-05T00:31:21.154Z,9.85
2023-05-05T00:32:21.208Z,9.86
2023-05-05T00:33:21.222Z,9.46
2023-05-05T00:34:21.271Z,9.45
2023-05-05T00:35:21.322Z,9.61
2023-05-05T00:36:21.401Z,9.46
2023-05-05T00:37:21.423Z,9.52
2023-05-05T00:38:21.473Z,9.32
2023-05-05T00:39:21.567Z,9.40
2023-05-05T00:40:21.571Z,9.49
2023-05-05T00:41:21.626Z,9.54
2023-05-05T00:42:21.672Z,9.56
2023-05-05T00:43:21.752Z,9.33
2023-05-05T00:44:21.763Z,9.47
2023-05-05T00:45:21.816Z,9.41
2023-05-05T00:46:21.903Z,9.36
2023-05-05T00:47:21.911Z,9.44
2023-05-05T00:48:21.978Z,9.33
2023-05-05T00:49:22.114Z,9.20
2023-05-05T00:50:22.093Z,9.25
2023-05-05T00:51:22.166Z,9.35
2023-05-05T00:52:22.213Z,9.32
2023-05-05T00:53:22.270Z,9.11
2023-05-05T00:54:22.346Z,9.22
2023-05-05T00:55:22.387Z,9.42
2023-05-05T00:56:22.465Z,9.08
2023-05-05T00:57:22.517Z,9.02
2023-05-05T00:58:22.567Z,9.11
2023-05-05T00:59:22.633Z,9.08
2023-05-05T01:00:22.697Z,9.12
2023-05-05T01:01:22.747Z,8.84
2023-05-05T01:02:22.820Z,9.26
2023-05-05T01:03:22.920Z,8.85
2023-05-05T01:04:22.899Z,8.82
2023-05-05T01:05:22.951Z,9.02
2023-05-05T01:06:22.999Z,8.91
2023-05-05T01:07:23.044Z,9.08
2023-05-05T01:08:23.091Z,8.96
2023-05-05T01:09:23.152Z,8.79
2023-05-05T01:10:23.436Z,8.80
2023-05-05T01:11:23.269Z,8.83
2023-05-05T01:12:23.329Z,8.65
2023-05-05T01:13:23.406Z,8.75
2023-05-05T01:14:23.449Z,8.69
2023-05-05T01:15:23.520Z,8.71
2023-05-05T01:16:23.637Z,8.82
2023-05-05T01:17:23.669Z,8.73
2023-05-05T01:18:23.684Z,8.81
2023-05-05T01:19:23.760Z,8.62
2023-05-05T01:20:23.815Z,8.78
2023-05-05T01:21:23.875Z,8.81
2023-05-05T01:22:23.927Z,8.79
2023-05-05T01:23:23.981Z,8.69
2023-05-05T01:24:24.036Z,8.70
2023-05-05T01:25:24.106Z,8.48
2023-05-05T01:26:24.147Z,8.46
2023-05-05T01:27:24.197Z,8.50
2023-05-05T01:28:24.249Z,8.52
2023-05-05T01:29:24.312Z,8.47
2023-05-05T01:30:24.361Z,8.37
2023-05-05T01:31:24.431Z,8.41
2023-05-05T01:32:24.534Z,8.51
2023-05-05T01:33:24.537Z,8.42
2023-05-05T01:34:24.607Z,8.42
2023-05-05T01:35:24.641Z,8.33
2023-05-05T01:36:24.683Z,8.50
2023-05-05T01:37:24.735Z,8.44
2023-05-05T01:38:24.786Z,8.52
2023-05-05T01:39:24.831Z,8.28
2023-05-05T01:40:24.876Z,8.42
2023-05-05T01:41:24.932Z,8.23
2023-05-05T01:42:24.991Z,8.32
2023-05-05T01:43:25.020Z,8.27
2023-05-05T01:44:25.063Z,8.02
2023-05-05T01:45:25.126Z,8.28
2023-05-05T01:46:25.166Z,8.21
2023-05-05T01:47:25.242Z,8.23
2023-05-05T01:48:25.255Z,8.23
2023-05-05T01:49:25.320Z,8.34
2023-05-05T01:50:25.368Z,8.12
2023-05-05T01:51:25.418Z,8.19
2023-05-05T01:52:25.458Z,8.09
2023-05-05T01:53:25.513Z,8.14
2023-05-05T01:54:25.564Z,8.10
2023-05-05T01:55:25.617Z,8.00
2023-05-05T01:56:25.672Z,8.13
2023-05-05T01:57:25.715Z,8.12
2023-05-05T01:58:25.768Z,7.96
2023-05-05T01:59:25.815Z,8.12
2023-05-05T02:00:25.873Z,7.90
2023-05-05T02:01:25.949Z,8.07
2023-05-05T02:02:26.033Z,7.96
2023-05-05T02:03:26.058Z,7.82
2023-05-05T02:04:26.077Z,7.99
2023-05-05T02:05:26.134Z,7.84
2023-05-05T02:06:26.213Z,7.87
2023-05-05T02:07:26.267Z,7.92
2023-05-05T02:08:26.339Z,7.87
2023-05-05T02:09:26.362Z,7.86
2023-05-05T02:10:26.426Z,7.90
2023-05-05T02:11:26.477Z,7.93
2023-05-05T02:12:26.527Z,7.82
2023-05-05T02:13:26.631Z,7.81
2023-05-05T02:14:26.626Z,7.79
2023-05-05T02:15:26.679Z,7.83
2023-05-05T02:16:26.732Z,7.62
2023-05-05T02:17:26.807Z,7.65
2023-05-05T02:18:26.840Z,7.61
2023-05-05T02:19:26.887Z,7.63
2023-05-05T02:20:26.952Z,7.68
2023-05-05T02:21:27.004Z,7.59
2023-05-05T02:22:27.051Z,7.50
2023-05-05T02:23:27.103Z,7.66
2023-05-05T02:24:27.152Z,7.71
2023-05-05T02:25:27.203Z,7.53
2023-05-05T02:26:27.256Z,7.49
2023-05-05T02:27:27.304Z,7.48
2023-05-05T02:28:27.366Z,7.55
2023-05-05T02:29:27.412Z,7.53
2023-05-05T02:30:27.444Z,7.60
2023-05-05T02:31:27.601Z,7.41
2023-05-05T02:32:27.591Z,7.55
2023-05-05T02:33:27.595Z,7.41
2023-05-05T02:34:27.640Z,7.37
2023-05-05T02:35:27.689Z,7.36
2023-05-05T02:36:27.798Z,7.41
2023-05-05T02:37:27.801Z,7.27
2023-05-05T02:38:27.853Z,7.42
2023-05-05T02:39:27.909Z,7.32
2023-05-05T02:40:27.958Z,7.19
2023-05-05T02:41:28.007Z,7.23
2023-05-05T02:42:28.072Z,7.12
2023-05-05T02:43:28.125Z,7.18
2023-05-05T02:44:28.187Z,7.20
2023-05-05T02:45:28.256Z,7.18
2023-05-05T02:46:28.362Z,7.17
2023-05-05T02:47:28.365Z,7.32
2023-05-05T02:48:28.406Z,7.14
2023-05-05T02:49:28.445Z,7.00
2023-05-05T02:50:28.473Z,7.01
2023-05-05T02:51:28.518Z,7.07
2023-05-05T02:52:28.571Z,7.11
2023-05-05T02:53:28.625Z,7.10
2023-05-05T02:54:28.683Z,6.89
2023-05-05T02:55:28.745Z,7.01
2023-05-05T02:56:28.777Z,6.86
2023-05-05T02:57:28.827Z,6.94
2023-05-05T02:58:28.887Z,6.87
2023-05-05T02:59:28.947Z,7.04
2023-05-05T03:00:29.004Z,7.06
2023-05-05T03:01:29.116Z,6.84
2023-05-05T03:02:29.246Z,6.91
2023-05-05T03:03:29.272Z,7.07
2023-05-05T03:04:29.242Z,6.89
2023-05-05T03:05:29.256Z,6.77
2023-05-05T03:06:29.323Z,6.92
2023-05-05T03:07:29.374Z,6.65
2023-05-05T03:08:29.421Z,6.65
2023-05-05T03:09:29.490Z,6.75
2023-05-05T03:10:29.546Z,6.62
2023-05-05T03:11:29.597Z,6.89
2023-05-05T03:12:29.677Z,6.68
2023-05-05T03:13:29.686Z,6.68
2023-05-05T03:14:32.772Z,6.66
2023-05-05T03:15:29.745Z,6.75
2023-05-05T03:16:29.793Z,6.87
2023-05-05T03:17:29.762Z,6.73
2023-05-05T03:18:29.824Z,6.69
2023-05-05T03:19:29.780Z,6.63
2023-05-05T03:20:29.780Z,6.63
2023-05-05T03:21:29.792Z,6.54
2023-05-05T03:22:29.784Z,6.53
2023-05-05T03:23:29.796Z,6.64
2023-05-05T03:24:29.813Z,6.44
2023-05-05T03:25:29.812Z,6.53
2023-05-05T03:26:29.808Z,6.54
2023-05-05T03:27:29.829Z,6.45
2023-05-05T03:28:29.830Z,6.53
2023-05-05T03:29:29.822Z,6.44
2023-05-05T03:30:29.825Z,6.37
2023-05-05T03:31:29.867Z,6.43
2023-05-05T03:32:29.888Z,6.39
2023-05-05T03:33:29.851Z,6.46
2023-05-05T03:34:29.846Z,6.43
2023-05-05T03:35:29.871Z,6.41
2023-05-05T03:36:29.865Z,6.31
2023-05-05T03:37:29.870Z,6.24
2023-05-05T03:38:29.884Z,6.18
2023-05-05T03:39:29.882Z,6.14
2023-05-05T03:40:42.964Z,6.28
2023-05-05T03:41:30.907Z,6.29
2023-05-05T03:42:29.902Z,6.32
2023-05-05T03:43:29.911Z,6.32
2023-05-05T03:44:29.913Z,6.29
2023-05-05T03:45:29.985Z,6.52
2023-05-05T03:46:29.944Z,6.32
2023-05-05T03:47:29.970Z,6.43
2023-05-05T03:48:29.939Z,6.38
2023-05-05T03:49:29.948Z,6.26
2023-05-05T03:50:29.948Z,6.15
2023-05-05T03:51:29.957Z,6.13
2023-05-05T03:52:29.953Z,6.20
2023-05-05T03:53:29.993Z,6.16
2023-05-05T03:54:30.025Z,6.07
2023-05-05T03:55:30.077Z,6.13
2023-05-05T03:56:30.110Z,6.19
2023-05-05T03:57:30.159Z,6.17
2023-05-05T03:58:30.209Z,6.10
2023-05-05T03:59:30.263Z,6.20
2023-05-05T04:00:30.841Z,6.09
2023-05-05T04:01:30.353Z,6.05
2023-05-05T04:02:30.474Z,6.00
2023-05-05T04:03:30.745Z,6.01
2023-05-05T04:04:30.552Z,6.00
2023-05-05T04:05:30.535Z,5.86
2023-05-05T04:06:30.583Z,6.04
2023-05-05T04:07:30.624Z,5.95
2023-05-05T04:08:30.677Z,6.06
2023-05-05T04:09:30.723Z,6.01
2023-05-05T04:10:30.780Z,5.96
2023-05-05T04:11:30.823Z,5.82
2023-05-05T04:12:30.918Z,5.78
2023-05-05T04:13:30.926Z,5.93
2023-05-05T04:14:30.975Z,5.84
2023-05-05T04:15:31.015Z,5.80
2023-05-05T04:16:31.188Z,5.77
2023-05-05T04:17:31.112Z,5.90
2023-05-05T04:18:31.177Z,5.84
2023-05-05T04:19:31.223Z,5.85
2023-05-05T04:20:31.275Z,5.74
2023-05-05T04:21:31.324Z,5.69
2023-05-05T04:22:31.366Z,5.81
2023-05-05T04:23:31.425Z,5.74
2023-05-05T04:24:31.473Z,5.81
2023-05-05T04:25:31.549Z,5.76
2023-05-05T04:26:31.576Z,5.59
2023-05-05T04:27:31.610Z,5.78
2023-05-05T04:28:31.723Z,5.65
2023-05-05T04:29:31.710Z,5.68
2023-05-05T04:30:31.758Z,5.63
2023-05-05T04:31:31.834Z,5.65
2023-05-05T04:32:31.899Z,5.66
2023-05-05T04:33:31.898Z,5.65
2023-05-05T04:34:31.956Z,5.69
2023-05-05T04:35:32.012Z,5.66
2023-05-05T04:36:32.062Z,5.52
2023-05-05T04:37:32.118Z,5.64
2023-05-05T04:38:32.192Z,5.46
2023-05-05T04:39:32.221Z,5.66
2023-05-05T04:40:32.291Z,5.62
2023-05-05T04:41:32.325Z,5.45
2023-05-05T04:42:32.377Z,5.54
2023-05-05T04:43:32.432Z,5.45
2023-05-05T04:44:32.475Z,5.43
2023-05-05T04:45:32.529Z,5.43
2023-05-05T04:46:32.586Z,5.46
2023-05-05T04:47:32.637Z,5.44
2023-05-05T04:48:32.767Z,5.52
2023-05-05T04:49:32.801Z,5.46
2023-05-05T04:50:32.825Z,5.44
2023-05-05T04:51:32.867Z,5.49
2023-05-05T04:52:32.877Z,5.45
2023-05-05T04:53:32.919Z,5.30
2023-05-05T04:54:32.976Z,5.29
2023-05-05T04:55:33.037Z,5.35
2023-05-05T04:56:33.102Z,5.29
2023-05-05T04:57:33.153Z,5.40
2023-05-05T04:58:33.201Z,5.32
2023-05-05T04:59:33.253Z,5.27
2023-05-05T05:00:33.310Z,5.29
2023-05-05T05:01:33.462Z,5.35
2023-05-05T05:02:33.492Z,5.26
2023-05-05T05:03:33.595Z,5.16
2023-05-05T05:04:33.550Z,5.34
2023-05-05T05:05:33.605Z,5.22
2023-05-05T05:06:33.617Z,5.24
2023-05-05T05:07:33.676Z,5.28
2023-05-05T05:08:33.725Z,5.21
2023-05-05T05:09:33.768Z,5.16
2023-05-05T05:10:33.824Z,5.21
2023-05-05T05:11:33.884Z,5.06
2023-05-05T05:12:33.943Z,5.17
2023-05-05T05:13:33.954Z,5.09
2023-05-05T05:14:34.876Z,5.05
2023-05-05T05:15:34.045Z,5.14
2023-05-05T05:16:34.128Z,5.19
2023-05-05T05:17:34.169Z,5.12
2023-05-05T05:18:34.224Z,5.12
2023-05-05T05:19:34.263Z,4.88
2023-05-05T05:20:34.347Z,4.94
2023-05-05T05:21:34.366Z,4.98
2023-05-05T05:22:34.409Z,4.09
2023-05-05T05:23:34.456Z,3.73
2023-05-05T05:24:34.524Z,3.38
2023-05-05T05:25:34.584Z,2.73
2023-05-05T05:26:34.657Z,2.52
2023-05-05T05:27:34.731Z,2.25
2023-05-05T05:28:34.798Z,2.09
2023-05-05T05:29:34.880Z,2.06
2023-05-05T05:30:34.972Z,1.71
2023-05-05T05:31:35.843Z,1.49
2023-05-05T05:32:35.153Z,1.60
2023-05-05T05:33:35.202Z,1.46
2023-05-05T05:34:35.287Z,1.65
2023-05-05T05:35:35.362Z,2.01
2023-05-05T05:36:35.428Z,2.19
2023-05-05T05:37:35.491Z,2.38
2023-05-05T05:38:35.571Z,2.53
2023-05-05T05:39:35.615Z,2.76
2023-05-05T05:40:35.663Z,2.81
2023-05-05T05:41:35.720Z,2.88
2023-05-05T05:42:35.862Z,2.95
2023-05-05T05:43:35.831Z,3.12
2023-05-05T05:44:35.861Z,3.22
2023-05-05T05:45:35.909Z,3.38
2023-05-05T05:46:36.040Z,3.44
2023-05-05T05:47:36.024Z,3.58
2023-05-05T05:48:36.034Z,3.70
2023-05-05T05:49:36.081Z,3.73
2023-05-05T05:50:36.115Z,3.52
2023-05-05T05:51:36.164Z,3.57
2023-05-05T05:52:36.193Z,3.78
2023-05-05T05:53:36.239Z,3.84
2023-05-05T05:54:36.270Z,3.95
2023-05-05T05:55:36.311Z,3.86
2023-05-05T05:56:36.347Z,2.87
2023-05-05T05:57:36.393Z,2.02
2023-05-05T05:58:36.457Z,1.38
2023-05-05T05:59:36.523Z,1.05
2023-05-05T06:00:36.576Z,0.80
2023-05-05T06:01:36.647Z,0.60
2023-05-05T06:02:36.790Z,0.64
2023-05-05T06:03:36.791Z,0.57
2023-05-05T06:04:36.879Z,0.54
2023-05-05T06:05:36.900Z,0.51
2023-05-05T06:06:36.943Z,0.56
2023-05-05T06:07:36.992Z,0.57
2023-05-05T06:08:37.040Z,0.55
2023-05-05T06:09:37.091Z,0.63
2023-05-05T06:10:37.143Z,0.72
2023-05-05T06:11:37.184Z,0.77
2023-05-05T06:12:37.261Z,0.76
2023-05-05T06:13:37.234Z,0.79
2023-05-05T06:14:37.274Z,0.86
2023-05-05T06:15:37.318Z,0.92
2023-05-05T06:16:37.308Z,0.93
2023-05-05T06:17:37.319Z,0.93
2023-05-05T06:18:37.338Z,0.98
2023-05-05T06:19:37.342Z,0.99
2023-05-05T06:20:37.358Z,0.98
2023-05-05T06:21:37.359Z,0.87
2023-05-05T06:22:37.390Z,0.67
2023-05-05T06:23:37.405Z,0.58
2023-05-05T06:24:37.429Z,0.51
2023-05-05T06:25:37.450Z,0.46
2023-05-05T06:26:37.457Z,0.50
2023-05-05T06:27:37.482Z,0.55
2023-05-05T06:28:37.526Z,0.66
2023-05-05T06:29:37.530Z,0.72
2023-05-05T06:30:37.544Z,0.72
2023-05-05T06:31:37.630Z,0.74
2023-05-05T06:32:37.578Z,0.65
2023-05-05T06:33:37.572Z,0.63
2023-05-05T06:34:37.593Z,0.67
2023-05-05T06:35:37.597Z,0.67
2023-05-05T06:36:37.675Z,0.69
2023-05-05T06:37:37.615Z,0.71
2023-05-05T06:38:37.628Z,0.79
2023-05-05T06:39:37.646Z,0.81
2023-05-05T06:40:37.660Z,0.85
2023-05-05T06:41:37.716Z,0.93
2023-05-05T06:42:37.649Z,0.97
2023-05-05T06:43:37.658Z,1.02
2023-05-05T06:44:37.674Z,1.05
2023-05-05T06:45:37.712Z,1.13
2023-05-05T06:46:37.838Z,1.24
2023-05-05T06:47:37.819Z,1.29
2023-05-05T06:48:37.822Z,1.33
2023-05-05T06:49:37.863Z,1.37
2023-05-05T06:50:37.918Z,1.44
2023-05-05T06:51:37.961Z,1.56
2023-05-05T06:52:37.973Z,1.57
2023-05-05T06:53:38.032Z,1.70
2023-05-05T06:54:38.143Z,1.76
2023-05-05T06:55:38.911Z,1.85
2023-05-05T06:56:38.103Z,1.91
2023-05-05T06:57:38.102Z,2.02
2023-05-05T06:58:38.080Z,2.02
2023-05-05T06:59:38.075Z,2.04
2023-05-05T07:00:38.085Z,2.02
2023-05-05T07:01:38.066Z,2.06
2023-05-05T07:02:38.091Z,2.15
2023-05-05T07:03:38.074Z,2.28
2023-05-05T07:04:38.079Z,2.51
2023-05-05T07:05:38.051Z,2.57
2023-05-05T07:06:38.047Z,2.85
2023-05-05T07:07:38.043Z,3.56
2023-05-05T07:08:38.023Z,3.48
2023-05-05T07:09:38.015Z,3.40
2023-05-05T07:10:38.145Z,3.43
2023-05-05T07:11:38.109Z,3.38
2023-05-05T07:12:38.160Z,3.43
2023-05-05T07:13:38.159Z,3.43
2023-05-05T07:14:38.134Z,3.44
2023-05-05T07:15:38.136Z,3.48
2023-05-05T07:16:38.165Z,3.59
2023-05-05T07:17:38.989Z,3.84
2023-05-05T07:18:38.126Z,3.84
2023-05-05T07:19:38.144Z,4.27
2023-05-05T07:20:38.105Z,4.55
2023-05-05T07:21:38.100Z,4.74
2023-05-05T07:22:38.082Z,4.06
2023-05-05T07:23:38.082Z,4.40
2023-05-05T07:24:38.082Z,4.56
2023-05-05T07:25:38.129Z,4.55
2023-05-05T07:26:38.312Z,4.66
2023-05-05T07:27:38.211Z,4.90
2023-05-05T07:28:38.278Z,5.01
2023-05-05T07:29:38.352Z,5.23
2023-05-05T07:30:38.376Z,5.33
2023-05-05T07:31:38.464Z,5.12
2023-05-05T07:32:38.505Z,5.12
2023-05-05T07:33:38.495Z,5.14
2023-05-05T07:34:39.474Z,5.14
2023-05-05T07:35:38.473Z,5.20
2023-05-05T07:36:38.514Z,5.44
2023-05-05T07:37:38.468Z,5.75
2023-05-05T07:38:38.455Z,6.45
2023-05-05T07:39:38.430Z,5.17
2023-05-05T07:40:38.413Z,5.33
2023-05-05T07:41:38.412Z,5.18
2023-05-05T07:42:38.522Z,5.41
2023-05-05T07:43:39.384Z,5.72
2023-05-05T07:44:38.366Z,6.35
2023-05-05T07:45:38.361Z,8.00
2023-05-05T07:46:38.391Z,8.43
2023-05-05T07:47:38.419Z,8.45
2023-05-05T07:48:38.361Z,8.50
2023-05-05T07:49:38.346Z,8.73
2023-05-05T07:50:38.336Z,9.01
2023-05-05T07:51:38.338Z,8.87
2023-05-05T07:52:48.256Z,8.91
2023-05-05T07:53:38.328Z,8.95
2023-05-05T07:54:38.315Z,9.06
2023-05-05T07:55:38.361Z,9.43
2023-05-05T07:56:38.291Z,9.88
2023-05-05T07:57:38.281Z,10.81
2023-05-05T07:58:38.325Z,10.70
2023-05-05T07:59:38.270Z,9.81
2023-05-05T08:00:38.242Z,10.44
2023-05-05T08:01:38.241Z,10.63
2023-05-05T08:02:38.336Z,10.53
2023-05-05T08:03:38.575Z,10.18
2023-05-05T08:04:38.400Z,10.69
2023-05-05T08:05:38.941Z,11.92
2023-05-05T08:06:38.444Z,13.23
2023-05-05T08:07:38.531Z,13.45
2023-05-05T08:08:38.566Z,13.98
2023-05-05T08:09:38.647Z,13.19
2023-05-05T08:10:38.681Z,13.04
2023-05-05T08:11:39.461Z,13.58
2023-05-05T08:12:38.821Z,11.74
2023-05-05T08:13:38.873Z,11.80
2023-05-05T08:14:39.005Z,11.87
2023-05-05T08:15:39.045Z,12.96
2023-05-05T08:16:39.034Z,10.17
2023-05-05T08:17:39.167Z,8.14
2023-05-05T08:18:39.158Z,6.60
2023-05-05T08:19:39.224Z,5.13
2023-05-05T08:20:39.285Z,4.78
2023-05-05T08:21:39.341Z,5.13
2023-05-05T08:22:39.405Z,5.14
2023-05-05T08:23:39.457Z,4.75
2023-05-05T08:24:39.534Z,4.57
2023-05-05T08:25:39.569Z,5.10
2023-05-05T08:26:39.612Z,5.57
2023-05-05T08:27:39.654Z,5.06
2023-05-05T08:28:39.723Z,5.17
2023-05-05T08:29:39.758Z,5.81
2023-05-05T08:30:39.910Z,6.27
2023-05-05T08:31:40.016Z,6.06
2023-05-05T08:32:39.945Z,6.02
2023-05-05T08:33:39.958Z,7.03
2023-05-05T08:34:40.006Z,7.69
2023-05-05T08:35:40.052Z,7.15
2023-05-05T08:36:40.088Z,7.29
2023-05-05T08:37:40.153Z,7.10
2023-05-05T08:38:40.202Z,7.84
2023-05-05T08:39:40.226Z,8.28
2023-05-05T08:40:40.273Z,6.69
2023-05-05T08:41:40.300Z,7.31
2023-05-05T08:42:40.393Z,6.34
2023-05-05T08:43:40.370Z,6.54
2023-05-05T08:44:40.420Z,5.78
2023-05-05T08:45:41.371Z,6.80
2023-05-05T08:46:41.538Z,6.86
2023-05-05T08:47:40.474Z,6.98
2023-05-05T08:48:40.406Z,7.05
2023-05-05T08:49:40.381Z,7.75
2023-05-05T08:50:40.370Z,8.44
2023-05-05T08:51:40.366Z,9.13
2023-05-05T08:52:40.432Z,9.43
2023-05-05T08:53:40.332Z,9.99
2023-05-05T08:54:40.319Z,10.40
2023-05-05T08:55:40.293Z,11.21
2023-05-05T08:56:40.278Z,13.25
2023-05-05T08:57:40.942Z,13.25
2023-05-05T08:58:40.254Z,12.97
2023-05-05T08:59:40.229Z,11.74
2023-05-05T09:00:40.256Z,10.55
2023-05-05T09:01:40.190Z,10.09
2023-05-05T09:02:40.292Z,11.05
2023-05-05T09:03:40.142Z,10.51
2023-05-05T09:04:40.132Z,12.36
2023-05-05T09:05:40.101Z,13.07
2023-05-05T09:06:40.083Z,12.59
2023-05-05T09:07:40.062Z,14.30
2023-05-05T09:08:40.060Z,15.21
2023-05-05T09:09:40.049Z,14.39
2023-05-05T09:10:40.033Z,15.36
2023-05-05T09:11:39.992Z,16.57
2023-05-05T09:12:40.011Z,19.48
2023-05-05T09:13:40.018Z,19.78
2023-05-05T09:14:40.015Z,19.46
2023-05-05T09:15:40.045Z,17.71
2023-05-05T09:16:40.233Z,19.28
2023-05-05T09:17:40.105Z,16.36
2023-05-05T09:18:40.164Z,17.85
2023-05-05T09:19:40.469Z,19.57
2023-05-05T09:20:41.102Z,19.63
2023-05-05T09:21:40.083Z,19.72
2023-05-05T09:22:40.059Z,20.30
2023-05-05T09:23:40.175Z,21.34
2023-05-05T09:24:40.018Z,23.01
2023-05-05T09:25:40.004Z,24.03
2023-05-05T09:26:40.049Z,25.92
2023-05-05T09:27:40.100Z,26.66
2023-05-05T09:28:40.898Z,26.72
2023-05-05T09:29:40.042Z,26.86
2023-05-05T09:30:40.051Z,27.19
2023-05-05T09:31:40.016Z,28.48
2023-05-05T09:32:40.123Z,30.50
2023-05-05T09:33:39.997Z,30.30
2023-05-05T09:34:40.062Z,30.81
2023-05-05T09:35:39.991Z,30.88
2023-05-05T09:36:39.984Z,32.17
2023-05-05T09:37:39.980Z,32.38
2023-05-05T09:38:39.996Z,32.88
2023-05-05T09:39:40.033Z,32.77
2023-05-05T09:40:40.076Z,32.52
2023-05-05T09:41:40.139Z,32.84
2023-05-05T09:42:40.192Z,32.69
2023-05-05T09:43:40.236Z,33.19
2023-05-05T09:44:40.280Z,33.40
2023-05-05T09:45:40.364Z,33.00
2023-05-05T09:46:40.399Z,33.04
2023-05-05T09:47:40.497Z,32.83
2023-05-05T09:48:40.505Z,32.78
2023-05-05T09:49:40.566Z,33.75
2023-05-05T09:50:41.397Z,32.99
2023-05-05T09:51:40.676Z,33.09
2023-05-05T09:52:40.764Z,33.94
2023-05-05T09:53:40.831Z,32.86
2023-05-05T09:54:40.869Z,33.18
2023-05-05T09:55:40.944Z,32.82
2023-05-05T09:56:41.037Z,33.45
2023-05-05T09:57:41.078Z,33.60
2023-05-05T09:58:41.131Z,33.49
2023-05-05T09:59:42.410Z,33.06
2023-05-05T10:00:41.212Z,32.88
2023-05-05T10:01:41.347Z,33.26
2023-05-05T10:02:41.311Z,32.55
2023-05-05T10:03:41.331Z,32.44
2023-05-05T10:04:41.387Z,32.78
2023-05-05T10:05:41.408Z,32.05
2023-05-05T10:06:41.513Z,32.44
2023-05-05T10:07:41.529Z,32.37
2023-05-05T10:08:41.553Z,32.61
2023-05-05T10:09:41.637Z,32.08
2023-05-05T10:10:41.704Z,31.76
2023-05-05T10:11:41.758Z,31.90
2023-05-05T10:12:42.529Z,31.47
2023-05-05T10:13:41.988Z,31.87
2023-05-05T10:14:41.944Z,33.51
2023-05-05T10:15:42.106Z,32.01
2023-05-05T10:16:42.120Z,23.47
2023-05-05T10:17:47.871Z,14.97
2023-05-05T10:18:43.129Z,11.10
2023-05-05T10:19:42.096Z,4.49
2023-05-05T10:20:42.099Z,2.12
2023-05-05T10:21:43.402Z,1.54
2023-05-05T10:22:42.203Z,1.67
2023-05-05T10:23:42.081Z,1.29
2023-05-05T10:24:42.074Z,1.10
2023-05-05T10:25:42.038Z,1.04
2023-05-05T10:26:42.029Z,0.84
2023-05-05T10:27:42.019Z,0.94
2023-05-05T10:28:42.003Z,0.63
2023-05-05T10:29:41.984Z,0.67
2023-05-05T10:30:41.970Z,0.69
2023-05-05T10:31:42.048Z,0.66
2023-05-05T10:33:42.077Z,0.64
2023-05-05T10:34:42.035Z,0.58
2023-05-05T10:35:41.994Z,0.55
2023-05-05T10:36:41.967Z,0.51
2023-05-05T10:37:41.963Z,0.48
2023-05-05T10:38:42.012Z,0.54
2023-05-05T10:39:41.982Z,0.53
2023-05-05T10:40:41.919Z,0.50
2023-05-05T10:41:41.915Z,0.58
2023-05-05T10:42:41.910Z,0.54
2023-05-05T10:43:41.896Z,0.57
2023-05-05T10:44:41.873Z,0.63
2023-05-05T10:45:41.969Z,0.43
2023-05-05T10:46:41.921Z,0.52
2023-05-05T10:47:41.891Z,0.51
2023-05-05T10:48:41.877Z,0.50
2023-05-05T10:49:41.825Z,0.55
2023-05-05T10:50:41.814Z,0.61
2023-05-05T10:51:41.804Z,0.77
2023-05-05T10:52:41.789Z,0.72
2023-05-05T10:53:41.776Z,0.58
2023-05-05T10:54:41.865Z,0.54
2023-05-05T10:55:41.743Z,0.55
2023-05-05T10:56:41.718Z,0.45
2023-05-05T10:57:41.748Z,0.51
2023-05-05T10:58:58.388Z,0.54
2023-05-05T10:59:42.702Z,0.54
2023-05-05T11:00:41.685Z,0.57
2023-05-05T11:01:41.651Z,0.55
2023-05-05T11:02:41.739Z,0.57
2023-05-05T11:03:41.668Z,0.57
2023-05-05T11:04:41.606Z,0.42
2023-05-05T11:05:41.595Z,0.37
2023-05-05T11:06:41.584Z,0.45
2023-05-05T11:07:41.562Z,0.57
2023-05-05T11:08:41.550Z,0.66
2023-05-05T11:09:41.597Z,0.65
2023-05-05T11:10:41.652Z,0.72
2023-05-05T11:11:41.507Z,0.80
2023-05-05T11:12:41.500Z,0.83
2023-05-05T11:13:41.483Z,0.95
2023-05-05T11:14:41.486Z,1.01
2023-05-05T11:15:41.487Z,1.03
2023-05-05T11:16:41.485Z,1.12
2023-05-05T11:17:41.492Z,1.12
2023-05-05T11:18:41.440Z,1.15
2023-05-05T11:19:41.421Z,1.19
2023-05-05T11:20:41.451Z,1.24
2023-05-05T11:21:41.481Z,1.33
2023-05-05T11:22:41.515Z,1.46
2023-05-05T11:23:41.556Z,1.54
2023-05-05T11:24:41.590Z,1.57
2023-05-05T11:25:41.627Z,1.59
2023-05-05T11:26:41.718Z,1.78
2023-05-05T11:27:41.693Z,1.73
2023-05-05T11:28:41.725Z,1.94
2023-05-05T11:29:41.765Z,2.07
2023-05-05T11:30:41.842Z,2.10
2023-05-05T11:31:41.890Z,2.06
2023-05-05T11:32:41.928Z,2.09
2023-05-05T11:33:41.931Z,2.30
2023-05-05T11:34:41.984Z,2.51
2023-05-05T11:35:42.018Z,2.67
2023-05-05T11:36:42.082Z,2.75
2023-05-05T11:37:42.117Z,2.92
2023-05-05T11:38:42.166Z,2.86
2023-05-05T11:39:42.226Z,3.13
2023-05-05T11:40:42.247Z,3.10
2023-05-05T11:41:42.309Z,3.27
2023-05-05T11:42:42.348Z,3.33
2023-05-05T11:43:42.389Z,3.40
2023-05-05T11:44:42.439Z,3.28
2023-05-05T11:45:42.475Z,3.35
2023-05-05T11:46:42.539Z,3.59
2023-05-05T11:47:42.737Z,3.66
2023-05-05T11:48:42.629Z,3.94
2023-05-05T11:49:42.714Z,3.98
2023-05-05T11:50:42.716Z,3.92
2023-05-05T11:51:42.770Z,4.25
2023-05-05T11:52:42.819Z,4.22
2023-05-05T11:53:42.887Z,4.32
2023-05-05T11:54:42.937Z,4.59
2023-05-05T11:55:42.974Z,4.60
2023-05-05T11:56:43.027Z,4.70
2023-05-05T11:57:43.076Z,4.63
2023-05-05T11:58:43.230Z,4.68
2023-05-05T11:59:43.161Z,4.77
2023-05-05T12:00:43.219Z,5.07
2023-05-05T12:01:43.266Z,4.70
2023-05-05T12:02:43.390Z,5.05
2023-05-05T12:03:43.553Z,5.04
2023-05-05T12:04:43.443Z,5.18
2023-05-05T12:05:43.478Z,5.23
2023-05-05T12:06:43.518Z,5.47
2023-05-05T12:07:43.573Z,5.32
2023-05-05T12:08:43.627Z,5.68
2023-05-05T12:09:43.670Z,5.81
2023-05-05T12:10:43.715Z,5.82
2023-05-05T12:11:43.772Z,5.86
2023-05-05T12:12:43.858Z,6.03
2023-05-05T12:13:43.866Z,6.24
2023-05-05T12:14:43.997Z,6.34
2023-05-05T12:15:43.975Z,6.30
2023-05-05T12:16:44.124Z,6.29
2023-05-05T12:17:44.111Z,6.38
2023-05-05T12:18:44.109Z,6.45
2023-05-05T12:19:44.169Z,6.62
2023-05-05T12:20:44.231Z,6.70
2023-05-05T12:21:45.025Z,6.93
2023-05-05T12:22:44.349Z,7.05
2023-05-05T12:23:44.395Z,8.09
2023-05-05T12:24:44.461Z,8.53
2023-05-05T12:25:44.507Z,8.68
2023-05-05T12:26:44.574Z,9.77
2023-05-05T12:27:44.648Z,9.68
2023-05-05T12:28:44.710Z,9.65
2023-05-05T12:29:44.773Z,10.35
2023-05-05T12:30:44.931Z,10.83
2023-05-05T12:31:44.916Z,11.00
2023-05-05T12:32:45.012Z,11.30
2023-05-05T12:33:45.023Z,11.58
2023-05-05T12:34:45.091Z,11.67
2023-05-05T12:35:45.154Z,12.15
2023-05-05T12:36:45.230Z,12.23
2023-05-05T12:37:45.268Z,12.57
2023-05-05T12:38:45.337Z,12.38
2023-05-05T12:39:45.404Z,12.67
2023-05-05T12:40:45.493Z,12.57
2023-05-05T12:41:45.545Z,12.36
2023-05-05T12:42:46.422Z,12.42
2023-05-05T12:43:45.661Z,12.26
2023-05-05T12:44:45.709Z,12.28
2023-05-05T12:45:45.783Z,12.13
2023-05-05T12:46:45.845Z,12.22
2023-05-05T12:47:45.946Z,12.44
2023-05-05T12:48:48.201Z,12.46
2023-05-05T12:49:46.117Z,12.61
2023-05-05T12:50:46.191Z,12.73
2023-05-05T12:51:46.248Z,12.61
2023-05-05T12:52:46.323Z,12.68
2023-05-05T12:53:46.370Z,12.66
2023-05-05T12:54:46.431Z,12.56
2023-05-05T12:55:46.516Z,12.61
2023-05-05T12:56:46.579Z,12.87
2023-05-05T12:57:46.642Z,12.88
2023-05-05T12:58:46.703Z,12.57
2023-05-05T12:59:46.756Z,12.86
2023-05-05T13:00:46.843Z,12.71
2023-05-05T13:01:46.912Z,12.82
2023-05-05T13:02:47.071Z,12.93
2023-05-05T13:03:47.008Z,12.83
2023-05-05T13:04:47.079Z,13.01
2023-05-05T13:05:47.140Z,13.02
2023-05-05T13:06:47.198Z,13.03
2023-05-05T13:07:47.253Z,13.03
2023-05-05T13:08:47.300Z,12.90
2023-05-05T13:09:47.367Z,12.83
2023-05-05T13:10:47.426Z,12.93
2023-05-05T13:11:47.485Z,12.82
2023-05-05T13:12:47.551Z,12.94
2023-05-05T13:13:47.604Z,13.00
2023-05-05T13:14:47.667Z,13.06